sensor_id;sensor_type;location;lat;lon;timestamp;temperature;humidity
5962;DHT22;3007;50.770;0.250;2023-02-07T00:00:43;2.60;99.90
5962;DHT22;3007;50.770;0.250;2023-02-07T00:03:10;2.60;99.90
5962;DHT22;3007;50.770;0.250;2023-02-07T00:05:37;2.50;99.90
5962;DHT22;3007;50.770;0.250;2023-02-07T00:08:04;2.50;99.90
5962;DHT22;3007;50.770;0.250;2023-02-07T00:10:33;2.40;99.90
5962;DHT22;3007;50.770;0.250;2023-02-07T00:13:01;2.40;99.90
5962;DHT22;3007;50.770;0.250;2023-02-07T00:15:28;2.40;99.90
5962;DHT22;3007;50.770;0.250;2023-02-07T00:17:54;2.30;99.90
5962;DHT22;3007;50.770;0.250;2023-02-07T00:20:21;2.30;99.90
5962;DHT22;3007;50.770;0.250;2023-02-07T00:22:49;2.30;99.90
5962;DHT22;3007;50.770;0.250;2023-02-07T00:25:17;2.30;99.90
5962;DHT22;3007;50.770;0.250;2023-02-07T00:27:45;2.30;99.90
5962;DHT22;3007;50.770;0.250;2023-02-07T00:30:12;2.30;99.90
5962;DHT22;3007;50.770;0.250;2023-02-07T00:32:39;2.20;99.90
5962;DHT22;3007;50.770;0.250;2023-02-07T00:35:07;2.20;99.90
5962;DHT22;3007;50.770;0.250;2023-02-07T00:37:34;2.20;99.90
5962;DHT22;3007;50.770;0.250;2023-02-07T00:40:01;2.10;99.90
5962;DHT22;3007;50.770;0.250;2023-02-07T00:42:28;2.10;99.90
5962;DHT22;3007;50.770;0.250;2023-02-07T00:44:56;2.10;99.90
5962;DHT22;3007;50.770;0.250;2023-02-07T00:47:23;2.10;99.90
5962;DHT22;3007;50.770;0.250;2023-02-07T00:49:50;2.10;99.90
5962;DHT22;3007;50.770;0.250;2023-02-07T00:52:17;2.10;99.90
5962;DHT22;3007;50.770;0.250;2023-02-07T00:54:44;2.20;99.90
5962;DHT22;3007;50.770;0.250;2023-02-07T00:57:10;2.20;99.90
5962;DHT22;3007;50.770;0.250;2023-02-07T00:59:37;2.20;99.90
5962;DHT22;3007;50.770;0.250;2023-02-07T01:02:06;2.20;99.90
5962;DHT22;3007;50.770;0.250;2023-02-07T01:04:33;2.20;99.90
5962;DHT22;3007;50.770;0.250;2023-02-07T01:06:59;2.20;99.90
5962;DHT22;3007;50.770;0.250;2023-02-07T01:09:26;2.20;99.90
5962;DHT22;3007;50.770;0.250;2023-02-07T01:11:53;2.20;99.90
5962;DHT22;3007;50.770;0.250;2023-02-07T01:14:20;2.10;99.90
5962;DHT22;3007;50.770;0.250;2023-02-07T01:16:47;2.10;99.90
5962;DHT22;3007;50.770;0.250;2023-02-07T01:19:16;2.10;99.90
5962;DHT22;3007;50.770;0.250;2023-02-07T01:21:44;2.10;99.90
5962;DHT22;3007;50.770;0.250;2023-02-07T01:24:10;2.00;99.90
5962;DHT22;3007;50.770;0.250;2023-02-07T01:26:38;2.00;99.90
5962;DHT22;3007;50.770;0.250;2023-02-07T01:29:06;2.00;99.90
5962;DHT22;3007;50.770;0.250;2023-02-07T01:31:33;1.90;99.90
5962;DHT22;3007;50.770;0.250;2023-02-07T01:34:00;1.90;99.90
5962;DHT22;3007;50.770;0.250;2023-02-07T01:36:29;1.90;99.90
5962;DHT22;3007;50.770;0.250;2023-02-07T01:38:56;1.90;99.90
5962;DHT22;3007;50.770;0.250;2023-02-07T01:41:24;1.90;99.90
5962;DHT22;3007;50.770;0.250;2023-02-07T01:43:57;1.90;99.90
5962;DHT22;3007;50.770;0.250;2023-02-07T01:46:25;1.90;99.90
5962;DHT22;3007;50.770;0.250;2023-02-07T01:48:54;1.90;99.90
5962;DHT22;3007;50.770;0.250;2023-02-07T01:51:22;1.80;99.90
5962;DHT22;3007;50.770;0.250;2023-02-07T01:53:53;1.80;99.90
5962;DHT22;3007;50.770;0.250;2023-02-07T01:56:21;1.80;99.90
5962;DHT22;3007;50.770;0.250;2023-02-07T01:58:48;1.80;99.90
5962;DHT22;3007;50.770;0.250;2023-02-07T02:01:18;1.80;99.90
5962;DHT22;3007;50.770;0.250;2023-02-07T02:03:47;1.80;99.90
5962;DHT22;3007;50.770;0.250;2023-02-07T02:06:15;1.90;99.90
5962;DHT22;3007;50.770;0.250;2023-02-07T02:08:43;1.90;99.90
5962;DHT22;3007;50.770;0.250;2023-02-07T02:14:19;2.00;99.90
5962;DHT22;3007;50.770;0.250;2023-02-07T02:16:55;2.00;99.90
5962;DHT22;3007;50.770;0.250;2023-02-07T02:19:50;2.10;99.90
5962;DHT22;3007;50.770;0.250;2023-02-07T02:22:50;2.10;99.90
5962;DHT22;3007;50.770;0.250;2023-02-07T02:25:48;2.20;99.90
5962;DHT22;3007;50.770;0.250;2023-02-07T02:34:28;2.10;99.90
5962;DHT22;3007;50.770;0.250;2023-02-07T02:37:02;2.00;99.90
5962;DHT22;3007;50.770;0.250;2023-02-07T02:39:37;1.90;99.90
5962;DHT22;3007;50.770;0.250;2023-02-07T02:42:10;1.80;99.90
5962;DHT22;3007;50.770;0.250;2023-02-07T02:44:44;1.70;99.90
5962;DHT22;3007;50.770;0.250;2023-02-07T02:47:13;1.70;99.90
5962;DHT22;3007;50.770;0.250;2023-02-07T02:49:42;1.70;99.90
5962;DHT22;3007;50.770;0.250;2023-02-07T02:52:13;1.70;99.90
5962;DHT22;3007;50.770;0.250;2023-02-07T02:54:41;1.70;99.90
5962;DHT22;3007;50.770;0.250;2023-02-07T02:57:28;1.60;99.90
5962;DHT22;3007;50.770;0.250;2023-02-07T03:00:20;1.60;99.90
5962;DHT22;3007;50.770;0.250;2023-02-07T03:02:59;1.60;99.90
5962;DHT22;3007;50.770;0.250;2023-02-07T03:05:39;1.60;99.90
5962;DHT22;3007;50.770;0.250;2023-02-07T03:08:17;1.50;99.90
5962;DHT22;3007;50.770;0.250;2023-02-07T03:10:54;1.50;99.90
5962;DHT22;3007;50.770;0.250;2023-02-07T03:13:26;1.50;99.90
5962;DHT22;3007;50.770;0.250;2023-02-07T03:16:02;1.40;99.90
5962;DHT22;3007;50.770;0.250;2023-02-07T03:18:39;1.50;99.90
5962;DHT22;3007;50.770;0.250;2023-02-07T03:21:17;1.50;99.90
5962;DHT22;3007;50.770;0.250;2023-02-07T03:23:46;1.40;99.90
5962;DHT22;3007;50.770;0.250;2023-02-07T03:26:15;1.50;99.90
5962;DHT22;3007;50.770;0.250;2023-02-07T03:28:43;1.40;99.90
5962;DHT22;3007;50.770;0.250;2023-02-07T03:31:13;1.40;99.90
5962;DHT22;3007;50.770;0.250;2023-02-07T03:33:43;1.40;99.90
5962;DHT22;3007;50.770;0.250;2023-02-07T03:36:16;1.40;99.90
5962;DHT22;3007;50.770;0.250;2023-02-07T03:38:45;1.40;99.90
5962;DHT22;3007;50.770;0.250;2023-02-07T03:41:17;1.40;99.90
5962;DHT22;3007;50.770;0.250;2023-02-07T03:43:47;1.40;99.90
5962;DHT22;3007;50.770;0.250;2023-02-07T03:46:14;1.40;99.90
5962;DHT22;3007;50.770;0.250;2023-02-07T03:48:41;1.40;99.90
5962;DHT22;3007;50.770;0.250;2023-02-07T03:51:08;1.40;99.90
5962;DHT22;3007;50.770;0.250;2023-02-07T03:53:37;1.40;99.90
5962;DHT22;3007;50.770;0.250;2023-02-07T03:56:04;1.40;99.90
5962;DHT22;3007;50.770;0.250;2023-02-07T03:58:31;1.40;99.90
5962;DHT22;3007;50.770;0.250;2023-02-07T04:00:58;1.40;99.90
5962;DHT22;3007;50.770;0.250;2023-02-07T04:03:25;1.30;99.90
5962;DHT22;3007;50.770;0.250;2023-02-07T04:05:52;1.30;99.90
5962;DHT22;3007;50.770;0.250;2023-02-07T04:08:19;1.30;99.90
5962;DHT22;3007;50.770;0.250;2023-02-07T04:10:57;1.30;99.90
5962;DHT22;3007;50.770;0.250;2023-02-07T04:13:24;1.30;99.90
5962;DHT22;3007;50.770;0.250;2023-02-07T04:15:51;1.30;99.90
5962;DHT22;3007;50.770;0.250;2023-02-07T04:18:18;1.30;99.90
5962;DHT22;3007;50.770;0.250;2023-02-07T04:20:45;1.30;99.90
5962;DHT22;3007;50.770;0.250;2023-02-07T04:23:12;1.30;99.90
5962;DHT22;3007;50.770;0.250;2023-02-07T04:25:38;1.30;99.90
5962;DHT22;3007;50.770;0.250;2023-02-07T04:28:07;1.30;99.90
5962;DHT22;3007;50.770;0.250;2023-02-07T04:30:36;1.30;99.90
5962;DHT22;3007;50.770;0.250;2023-02-07T04:33:03;1.30;99.90
5962;DHT22;3007;50.770;0.250;2023-02-07T04:35:30;1.20;99.90
5962;DHT22;3007;50.770;0.250;2023-02-07T04:37:57;1.30;99.90
5962;DHT22;3007;50.770;0.250;2023-02-07T04:40:24;1.20;99.90
5962;DHT22;3007;50.770;0.250;2023-02-07T04:42:51;1.20;99.90
5962;DHT22;3007;50.770;0.250;2023-02-07T04:45:19;1.20;99.90
5962;DHT22;3007;50.770;0.250;2023-02-07T04:47:46;1.20;99.90
5962;DHT22;3007;50.770;0.250;2023-02-07T04:50:13;1.20;99.90
5962;DHT22;3007;50.770;0.250;2023-02-07T04:52:40;1.20;99.90
5962;DHT22;3007;50.770;0.250;2023-02-07T04:55:08;1.20;99.90
5962;DHT22;3007;50.770;0.250;2023-02-07T04:57:35;1.20;99.90
5962;DHT22;3007;50.770;0.250;2023-02-07T05:00:03;1.10;99.90
5962;DHT22;3007;50.770;0.250;2023-02-07T05:02:32;1.10;99.90
5962;DHT22;3007;50.770;0.250;2023-02-07T05:04:59;1.10;99.90
5962;DHT22;3007;50.770;0.250;2023-02-07T05:07:25;1.10;99.90
5962;DHT22;3007;50.770;0.250;2023-02-07T05:09:52;1.20;99.90
5962;DHT22;3007;50.770;0.250;2023-02-07T05:12:19;1.10;99.90
5962;DHT22;3007;50.770;0.250;2023-02-07T05:14:46;1.10;99.90
5962;DHT22;3007;50.770;0.250;2023-02-07T05:17:13;1.20;99.90
5962;DHT22;3007;50.770;0.250;2023-02-07T05:19:42;1.20;99.90
5962;DHT22;3007;50.770;0.250;2023-02-07T05:22:08;1.20;99.90
5962;DHT22;3007;50.770;0.250;2023-02-07T05:24:35;1.20;99.90
5962;DHT22;3007;50.770;0.250;2023-02-07T05:27:03;1.20;99.90
5962;DHT22;3007;50.770;0.250;2023-02-07T05:29:30;1.20;99.90
5962;DHT22;3007;50.770;0.250;2023-02-07T05:31:57;1.20;99.90
5962;DHT22;3007;50.770;0.250;2023-02-07T05:34:43;1.20;99.90
5962;DHT22;3007;50.770;0.250;2023-02-07T05:37:09;1.20;99.90
5962;DHT22;3007;50.770;0.250;2023-02-07T05:39:37;1.30;99.90
5962;DHT22;3007;50.770;0.250;2023-02-07T05:42:04;1.30;99.90
5962;DHT22;3007;50.770;0.250;2023-02-07T05:44:30;1.20;99.90
5962;DHT22;3007;50.770;0.250;2023-02-07T05:46:57;1.20;99.90
5962;DHT22;3007;50.770;0.250;2023-02-07T05:49:24;1.20;99.90
5962;DHT22;3007;50.770;0.250;2023-02-07T05:51:52;1.20;99.90
5962;DHT22;3007;50.770;0.250;2023-02-07T05:54:20;1.20;99.90
5962;DHT22;3007;50.770;0.250;2023-02-07T05:56:47;1.20;99.90
5962;DHT22;3007;50.770;0.250;2023-02-07T05:59:13;1.30;99.90
5962;DHT22;3007;50.770;0.250;2023-02-07T06:01:41;1.30;99.90
5962;DHT22;3007;50.770;0.250;2023-02-07T06:04:07;1.20;99.90
5962;DHT22;3007;50.770;0.250;2023-02-07T06:06:37;1.20;99.90
5962;DHT22;3007;50.770;0.250;2023-02-07T06:09:05;1.20;99.90
5962;DHT22;3007;50.770;0.250;2023-02-07T06:11:32;1.30;99.90
5962;DHT22;3007;50.770;0.250;2023-02-07T06:13:59;1.30;99.90
5962;DHT22;3007;50.770;0.250;2023-02-07T06:16:26;1.30;99.90
5962;DHT22;3007;50.770;0.250;2023-02-07T06:18:53;1.30;99.90
5962;DHT22;3007;50.770;0.250;2023-02-07T06:21:20;1.30;99.90
5962;DHT22;3007;50.770;0.250;2023-02-07T06:23:47;1.30;99.90
5962;DHT22;3007;50.770;0.250;2023-02-07T06:26:17;1.30;99.90
5962;DHT22;3007;50.770;0.250;2023-02-07T06:28:44;1.30;99.90
5962;DHT22;3007;50.770;0.250;2023-02-07T06:31:14;1.40;99.90
5962;DHT22;3007;50.770;0.250;2023-02-07T06:33:41;1.40;99.90
5962;DHT22;3007;50.770;0.250;2023-02-07T06:36:08;1.40;99.90
5962;DHT22;3007;50.770;0.250;2023-02-07T06:38:35;1.40;99.90
5962;DHT22;3007;50.770;0.250;2023-02-07T06:41:02;1.40;99.90
5962;DHT22;3007;50.770;0.250;2023-02-07T06:43:30;1.40;99.90
5962;DHT22;3007;50.770;0.250;2023-02-07T06:45:57;1.40;99.90
5962;DHT22;3007;50.770;0.250;2023-02-07T06:48:24;1.40;99.90
5962;DHT22;3007;50.770;0.250;2023-02-07T06:50:51;1.30;99.90
5962;DHT22;3007;50.770;0.250;2023-02-07T06:53:18;1.30;99.90
5962;DHT22;3007;50.770;0.250;2023-02-07T06:55:45;1.30;99.90
5962;DHT22;3007;50.770;0.250;2023-02-07T06:58:12;1.20;99.90
5962;DHT22;3007;50.770;0.250;2023-02-07T07:00:40;1.20;99.90
5962;DHT22;3007;50.770;0.250;2023-02-07T07:03:10;1.20;99.90
5962;DHT22;3007;50.770;0.250;2023-02-07T07:05:38;1.20;99.90
5962;DHT22;3007;50.770;0.250;2023-02-07T07:08:05;1.20;99.90
5962;DHT22;3007;50.770;0.250;2023-02-07T07:10:32;1.20;99.90
5962;DHT22;3007;50.770;0.250;2023-02-07T07:12:59;1.20;99.90
5962;DHT22;3007;50.770;0.250;2023-02-07T07:15:26;1.20;99.90
5962;DHT22;3007;50.770;0.250;2023-02-07T07:17:54;1.30;99.90
5962;DHT22;3007;50.770;0.250;2023-02-07T07:20:21;1.30;99.90
5962;DHT22;3007;50.770;0.250;2023-02-07T07:22:48;1.40;99.90
5962;DHT22;3007;50.770;0.250;2023-02-07T07:25:15;1.30;99.90
5962;DHT22;3007;50.770;0.250;2023-02-07T07:27:42;1.30;99.90
5962;DHT22;3007;50.770;0.250;2023-02-07T07:30:10;1.30;99.90
5962;DHT22;3007;50.770;0.250;2023-02-07T07:32:37;1.40;99.90
5962;DHT22;3007;50.770;0.250;2023-02-07T07:35:06;1.30;99.90
5962;DHT22;3007;50.770;0.250;2023-02-07T07:37:33;1.30;99.90
5962;DHT22;3007;50.770;0.250;2023-02-07T07:40:00;1.40;99.90
5962;DHT22;3007;50.770;0.250;2023-02-07T07:42:27;1.30;99.90
5962;DHT22;3007;50.770;0.250;2023-02-07T07:44:54;1.40;99.90
5962;DHT22;3007;50.770;0.250;2023-02-07T07:47:21;1.40;99.90
5962;DHT22;3007;50.770;0.250;2023-02-07T07:49:49;1.40;99.90
5962;DHT22;3007;50.770;0.250;2023-02-07T07:52:17;1.30;99.90
5962;DHT22;3007;50.770;0.250;2023-02-07T07:54:44;1.40;99.90
5962;DHT22;3007;50.770;0.250;2023-02-07T07:57:11;1.50;99.90
5962;DHT22;3007;50.770;0.250;2023-02-07T07:59:38;1.50;99.90
5962;DHT22;3007;50.770;0.250;2023-02-07T08:02:05;1.60;99.90
5962;DHT22;3007;50.770;0.250;2023-02-07T08:04:32;1.70;99.90
5962;DHT22;3007;50.770;0.250;2023-02-07T08:06:59;1.70;99.90
5962;DHT22;3007;50.770;0.250;2023-02-07T08:09:27;1.70;99.90
5962;DHT22;3007;50.770;0.250;2023-02-07T08:11:54;1.70;99.90
5962;DHT22;3007;50.770;0.250;2023-02-07T08:14:21;1.70;99.90
5962;DHT22;3007;50.770;0.250;2023-02-07T08:16:48;1.70;99.90
5962;DHT22;3007;50.770;0.250;2023-02-07T08:19:15;1.70;99.90
5962;DHT22;3007;50.770;0.250;2023-02-07T08:21:42;1.70;99.90
5962;DHT22;3007;50.770;0.250;2023-02-07T08:24:09;1.70;99.90
5962;DHT22;3007;50.770;0.250;2023-02-07T08:26:37;1.70;99.90
5962;DHT22;3007;50.770;0.250;2023-02-07T08:29:04;1.70;99.90
5962;DHT22;3007;50.770;0.250;2023-02-07T08:31:31;1.70;99.90
5962;DHT22;3007;50.770;0.250;2023-02-07T08:33:59;1.70;99.90
5962;DHT22;3007;50.770;0.250;2023-02-07T08:36:26;1.70;99.90
5962;DHT22;3007;50.770;0.250;2023-02-07T08:38:52;1.70;99.90
5962;DHT22;3007;50.770;0.250;2023-02-07T08:41:20;1.80;99.90
5962;DHT22;3007;50.770;0.250;2023-02-07T08:43:48;1.80;99.90
5962;DHT22;3007;50.770;0.250;2023-02-07T08:46:15;1.80;99.90
5962;DHT22;3007;50.770;0.250;2023-02-07T08:48:42;1.90;99.90
5962;DHT22;3007;50.770;0.250;2023-02-07T08:51:09;1.90;99.90
5962;DHT22;3007;50.770;0.250;2023-02-07T08:53:36;1.90;99.90
5962;DHT22;3007;50.770;0.250;2023-02-07T08:56:03;1.90;99.90
5962;DHT22;3007;50.770;0.250;2023-02-07T08:58:30;2.00;99.90
5962;DHT22;3007;50.770;0.250;2023-02-07T09:00:59;2.10;99.90
5962;DHT22;3007;50.770;0.250;2023-02-07T09:03:25;2.20;99.90
5962;DHT22;3007;50.770;0.250;2023-02-07T09:05:56;2.20;99.90
5962;DHT22;3007;50.770;0.250;2023-02-07T09:08:23;2.20;99.90
5962;DHT22;3007;50.770;0.250;2023-02-07T09:10:50;2.20;99.90
5962;DHT22;3007;50.770;0.250;2023-02-07T09:13:17;2.20;99.90
5962;DHT22;3007;50.770;0.250;2023-02-07T09:15:44;2.30;99.90
5962;DHT22;3007;50.770;0.250;2023-02-07T09:18:12;2.40;99.90
5962;DHT22;3007;50.770;0.250;2023-02-07T09:20:39;2.40;99.90
5962;DHT22;3007;50.770;0.250;2023-02-07T09:23:06;2.60;99.90
5962;DHT22;3007;50.770;0.250;2023-02-07T09:25:45;2.70;99.90
5962;DHT22;3007;50.770;0.250;2023-02-07T09:28:12;2.90;99.90
5962;DHT22;3007;50.770;0.250;2023-02-07T09:30:40;3.00;99.90
5962;DHT22;3007;50.770;0.250;2023-02-07T09:33:07;3.20;99.90
5962;DHT22;3007;50.770;0.250;2023-02-07T09:35:37;3.40;99.90
5962;DHT22;3007;50.770;0.250;2023-02-07T09:38:05;3.50;99.90
5962;DHT22;3007;50.770;0.250;2023-02-07T09:40:32;3.60;99.90
5962;DHT22;3007;50.770;0.250;2023-02-07T09:43:09;3.80;99.90
5962;DHT22;3007;50.770;0.250;2023-02-07T09:45:43;3.90;99.90
5962;DHT22;3007;50.770;0.250;2023-02-07T09:48:26;4.10;99.90
5962;DHT22;3007;50.770;0.250;2023-02-07T09:50:58;4.10;99.90
5962;DHT22;3007;50.770;0.250;2023-02-07T09:53:28;4.20;99.90
5962;DHT22;3007;50.770;0.250;2023-02-07T09:55:58;4.30;99.90
5962;DHT22;3007;50.770;0.250;2023-02-07T09:58:34;4.40;99.90
5962;DHT22;3007;50.770;0.250;2023-02-07T10:01:07;4.50;99.90
5962;DHT22;3007;50.770;0.250;2023-02-07T10:03:42;4.70;99.90
5962;DHT22;3007;50.770;0.250;2023-02-07T10:06:16;4.80;99.90
5962;DHT22;3007;50.770;0.250;2023-02-07T10:08:53;4.90;99.90
5962;DHT22;3007;50.770;0.250;2023-02-07T10:11:30;5.00;99.90
5962;DHT22;3007;50.770;0.250;2023-02-07T10:14:14;5.10;99.90
5962;DHT22;3007;50.770;0.250;2023-02-07T10:16:56;5.20;99.90
5962;DHT22;3007;50.770;0.250;2023-02-07T10:19:37;5.30;99.90
5962;DHT22;3007;50.770;0.250;2023-02-07T10:22:14;5.40;99.90
5962;DHT22;3007;50.770;0.250;2023-02-07T10:25:08;5.50;99.90
5962;DHT22;3007;50.770;0.250;2023-02-07T10:27:46;5.50;99.90
5962;DHT22;3007;50.770;0.250;2023-02-07T10:30:17;5.50;99.90
5962;DHT22;3007;50.770;0.250;2023-02-07T10:32:46;5.50;99.90
5962;DHT22;3007;50.770;0.250;2023-02-07T10:35:17;5.40;99.90
5962;DHT22;3007;50.770;0.250;2023-02-07T10:37:48;5.40;99.90
5962;DHT22;3007;50.770;0.250;2023-02-07T10:40:19;5.40;99.90
5962;DHT22;3007;50.770;0.250;2023-02-07T10:42:53;5.40;99.90
5962;DHT22;3007;50.770;0.250;2023-02-07T10:45:22;5.30;99.90
5962;DHT22;3007;50.770;0.250;2023-02-07T10:47:49;5.20;99.90
5962;DHT22;3007;50.770;0.250;2023-02-07T10:50:19;5.20;99.90
5962;DHT22;3007;50.770;0.250;2023-02-07T10:52:52;5.20;99.90
5962;DHT22;3007;50.770;0.250;2023-02-07T10:55:34;5.20;99.90
5962;DHT22;3007;50.770;0.250;2023-02-07T10:58:02;5.20;99.90
5962;DHT22;3007;50.770;0.250;2023-02-07T11:00:30;5.20;99.90
5962;DHT22;3007;50.770;0.250;2023-02-07T11:03:01;5.20;99.90
5962;DHT22;3007;50.770;0.250;2023-02-07T11:05:39;5.10;99.90
5962;DHT22;3007;50.770;0.250;2023-02-07T11:08:19;5.20;99.90
5962;DHT22;3007;50.770;0.250;2023-02-07T11:10:48;5.20;99.90
5962;DHT22;3007;50.770;0.250;2023-02-07T11:13:17;5.10;99.90
5962;DHT22;3007;50.770;0.250;2023-02-07T11:15:51;5.10;99.90
5962;DHT22;3007;50.770;0.250;2023-02-07T11:18:34;5.10;99.90
5962;DHT22;3007;50.770;0.250;2023-02-07T11:21:05;5.10;99.90
5962;DHT22;3007;50.770;0.250;2023-02-07T11:23:34;5.10;99.90
5962;DHT22;3007;50.770;0.250;2023-02-07T11:26:02;5.10;99.90
5962;DHT22;3007;50.770;0.250;2023-02-07T11:28:30;5.10;99.90
5962;DHT22;3007;50.770;0.250;2023-02-07T11:31:01;5.20;99.90
5962;DHT22;3007;50.770;0.250;2023-02-07T11:33:30;5.20;99.90
5962;DHT22;3007;50.770;0.250;2023-02-07T11:36:12;5.20;99.90
5962;DHT22;3007;50.770;0.250;2023-02-07T11:38:49;5.20;99.90
5962;DHT22;3007;50.770;0.250;2023-02-07T11:41:20;5.20;99.90
5962;DHT22;3007;50.770;0.250;2023-02-07T11:43:57;5.20;99.90
5962;DHT22;3007;50.770;0.250;2023-02-07T11:46:32;5.20;99.90
5962;DHT22;3007;50.770;0.250;2023-02-07T11:49:01;5.20;99.90
5962;DHT22;3007;50.770;0.250;2023-02-07T11:51:29;5.20;99.90
5962;DHT22;3007;50.770;0.250;2023-02-07T11:54:00;5.30;99.90
5962;DHT22;3007;50.770;0.250;2023-02-07T11:56:31;5.30;99.90
5962;DHT22;3007;50.770;0.250;2023-02-07T11:59:03;5.40;99.90
5962;DHT22;3007;50.770;0.250;2023-02-07T12:01:32;5.40;99.90
5962;DHT22;3007;50.770;0.250;2023-02-07T12:04:02;5.40;99.90
5962;DHT22;3007;50.770;0.250;2023-02-07T12:06:37;5.50;99.90
5962;DHT22;3007;50.770;0.250;2023-02-07T12:09:15;5.50;99.90
5962;DHT22;3007;50.770;0.250;2023-02-07T12:11:46;5.50;99.90
5962;DHT22;3007;50.770;0.250;2023-02-07T12:14:17;5.60;99.90
5962;DHT22;3007;50.770;0.250;2023-02-07T12:16:48;5.60;99.90
5962;DHT22;3007;50.770;0.250;2023-02-07T12:19:20;5.70;99.90
5962;DHT22;3007;50.770;0.250;2023-02-07T12:21:54;5.80;99.90
5962;DHT22;3007;50.770;0.250;2023-02-07T12:24:29;5.80;99.90
5962;DHT22;3007;50.770;0.250;2023-02-07T12:27:03;5.90;99.90
5962;DHT22;3007;50.770;0.250;2023-02-07T12:29:39;5.90;99.90
5962;DHT22;3007;50.770;0.250;2023-02-07T12:32:15;5.90;99.90
5962;DHT22;3007;50.770;0.250;2023-02-07T12:34:53;5.90;99.90
5962;DHT22;3007;50.770;0.250;2023-02-07T12:37:27;5.80;99.90
5962;DHT22;3007;50.770;0.250;2023-02-07T12:40:07;5.80;99.90
5962;DHT22;3007;50.770;0.250;2023-02-07T12:42:38;5.80;99.90
5962;DHT22;3007;50.770;0.250;2023-02-07T12:45:13;5.70;99.90
5962;DHT22;3007;50.770;0.250;2023-02-07T12:47:46;5.70;99.90
5962;DHT22;3007;50.770;0.250;2023-02-07T12:50:22;5.70;99.90
5962;DHT22;3007;50.770;0.250;2023-02-07T12:52:59;5.70;99.90
5962;DHT22;3007;50.770;0.250;2023-02-07T12:55:39;5.70;99.90
5962;DHT22;3007;50.770;0.250;2023-02-07T12:58:24;5.70;99.90
5962;DHT22;3007;50.770;0.250;2023-02-07T13:00:58;5.70;99.90
5962;DHT22;3007;50.770;0.250;2023-02-07T13:03:43;5.70;99.90
5962;DHT22;3007;50.770;0.250;2023-02-07T13:06:21;5.70;99.90
5962;DHT22;3007;50.770;0.250;2023-02-07T13:08:56;5.70;99.90
5962;DHT22;3007;50.770;0.250;2023-02-07T13:11:35;5.60;99.90
5962;DHT22;3007;50.770;0.250;2023-02-07T13:14:25;5.70;99.90
5962;DHT22;3007;50.770;0.250;2023-02-07T13:17:09;5.70;99.90
5962;DHT22;3007;50.770;0.250;2023-02-07T13:19:46;5.80;99.90
5962;DHT22;3007;50.770;0.250;2023-02-07T13:22:23;5.80;99.90
5962;DHT22;3007;50.770;0.250;2023-02-07T13:24:54;5.70;99.90
5962;DHT22;3007;50.770;0.250;2023-02-07T13:27:22;5.80;99.90
5962;DHT22;3007;50.770;0.250;2023-02-07T13:29:50;5.80;99.90
5962;DHT22;3007;50.770;0.250;2023-02-07T13:32:19;5.80;99.90
5962;DHT22;3007;50.770;0.250;2023-02-07T13:34:51;5.70;99.90
5962;DHT22;3007;50.770;0.250;2023-02-07T13:37:22;5.70;99.90
5962;DHT22;3007;50.770;0.250;2023-02-07T13:39:56;5.70;99.90
5962;DHT22;3007;50.770;0.250;2023-02-07T13:42:32;5.80;99.90
5962;DHT22;3007;50.770;0.250;2023-02-07T13:45:05;5.80;99.90
5962;DHT22;3007;50.770;0.250;2023-02-07T13:47:43;5.80;99.90
5962;DHT22;3007;50.770;0.250;2023-02-07T13:50:24;5.80;99.90
5962;DHT22;3007;50.770;0.250;2023-02-07T13:53:00;5.70;99.90
5962;DHT22;3007;50.770;0.250;2023-02-07T13:55:32;5.70;99.90
5962;DHT22;3007;50.770;0.250;2023-02-07T13:58:03;5.70;99.90
5962;DHT22;3007;50.770;0.250;2023-02-07T14:01:07;5.70;99.90
5962;DHT22;3007;50.770;0.250;2023-02-07T14:03:35;5.70;99.90
5962;DHT22;3007;50.770;0.250;2023-02-07T14:06:19;5.70;99.90
5962;DHT22;3007;50.770;0.250;2023-02-07T14:08:57;5.70;99.90
5962;DHT22;3007;50.770;0.250;2023-02-07T14:11:32;5.70;99.90
5962;DHT22;3007;50.770;0.250;2023-02-07T14:14:13;5.70;99.90
5962;DHT22;3007;50.770;0.250;2023-02-07T14:16:49;5.70;99.90
5962;DHT22;3007;50.770;0.250;2023-02-07T14:19:47;5.70;99.90
5962;DHT22;3007;50.770;0.250;2023-02-07T14:22:16;5.70;99.90
5962;DHT22;3007;50.770;0.250;2023-02-07T14:24:49;5.60;99.90
5962;DHT22;3007;50.770;0.250;2023-02-07T14:27:28;5.60;99.90
5962;DHT22;3007;50.770;0.250;2023-02-07T14:30:16;5.60;99.90
5962;DHT22;3007;50.770;0.250;2023-02-07T14:33:08;5.60;99.90
5962;DHT22;3007;50.770;0.250;2023-02-07T14:35:36;5.60;99.90
5962;DHT22;3007;50.770;0.250;2023-02-07T14:38:27;5.60;99.90
5962;DHT22;3007;50.770;0.250;2023-02-07T14:41:01;5.60;99.90
5962;DHT22;3007;50.770;0.250;2023-02-07T14:43:47;5.60;99.90
5962;DHT22;3007;50.770;0.250;2023-02-07T14:46:24;5.60;99.90
5962;DHT22;3007;50.770;0.250;2023-02-07T14:48:53;5.60;99.90
5962;DHT22;3007;50.770;0.250;2023-02-07T14:51:31;5.60;99.90
5962;DHT22;3007;50.770;0.250;2023-02-07T14:54:07;5.60;99.90
5962;DHT22;3007;50.770;0.250;2023-02-07T14:56:51;5.50;99.90
5962;DHT22;3007;50.770;0.250;2023-02-07T14:59:26;5.50;99.90
5962;DHT22;3007;50.770;0.250;2023-02-07T15:01:56;5.50;99.90
5962;DHT22;3007;50.770;0.250;2023-02-07T15:04:23;5.50;99.90
5962;DHT22;3007;50.770;0.250;2023-02-07T15:06:50;5.50;99.90
5962;DHT22;3007;50.770;0.250;2023-02-07T15:09:20;5.50;99.90
5962;DHT22;3007;50.770;0.250;2023-02-07T15:11:49;5.50;99.90
5962;DHT22;3007;50.770;0.250;2023-02-07T15:14:21;5.50;99.90
5962;DHT22;3007;50.770;0.250;2023-02-07T15:16:48;5.40;99.90
5962;DHT22;3007;50.770;0.250;2023-02-07T15:19:20;5.40;99.90
5962;DHT22;3007;50.770;0.250;2023-02-07T15:21:48;5.40;99.90
5962;DHT22;3007;50.770;0.250;2023-02-07T15:24:17;5.40;99.90
5962;DHT22;3007;50.770;0.250;2023-02-07T15:26:49;5.40;99.90
5962;DHT22;3007;50.770;0.250;2023-02-07T15:29:20;5.40;99.90
5962;DHT22;3007;50.770;0.250;2023-02-07T15:31:47;5.40;99.90
5962;DHT22;3007;50.770;0.250;2023-02-07T15:34:15;5.40;99.90
5962;DHT22;3007;50.770;0.250;2023-02-07T15:36:46;5.40;99.90
5962;DHT22;3007;50.770;0.250;2023-02-07T15:39:15;5.30;99.90
5962;DHT22;3007;50.770;0.250;2023-02-07T15:41:44;5.30;99.90
5962;DHT22;3007;50.770;0.250;2023-02-07T15:44:22;5.30;99.90
5962;DHT22;3007;50.770;0.250;2023-02-07T15:46:51;5.30;99.90
5962;DHT22;3007;50.770;0.250;2023-02-07T15:49:27;5.20;99.90
5962;DHT22;3007;50.770;0.250;2023-02-07T15:52:00;5.20;99.90
5962;DHT22;3007;50.770;0.250;2023-02-07T15:54:28;5.20;99.90
5962;DHT22;3007;50.770;0.250;2023-02-07T15:56:58;5.20;99.90
5962;DHT22;3007;50.770;0.250;2023-02-07T15:59:28;5.10;99.90
5962;DHT22;3007;50.770;0.250;2023-02-07T16:01:57;5.10;99.90
5962;DHT22;3007;50.770;0.250;2023-02-07T16:04:26;5.10;99.90
5962;DHT22;3007;50.770;0.250;2023-02-07T16:06:58;5.10;99.90
5962;DHT22;3007;50.770;0.250;2023-02-07T16:09:37;5.00;99.90
5962;DHT22;3007;50.770;0.250;2023-02-07T16:12:28;4.90;99.90
5962;DHT22;3007;50.770;0.250;2023-02-07T16:14:57;4.90;99.90
5962;DHT22;3007;50.770;0.250;2023-02-07T16:17:35;4.90;99.90
5962;DHT22;3007;50.770;0.250;2023-02-07T16:20:02;4.90;99.90
5962;DHT22;3007;50.770;0.250;2023-02-07T16:22:31;4.90;99.90
5962;DHT22;3007;50.770;0.250;2023-02-07T16:24:59;4.90;99.90
5962;DHT22;3007;50.770;0.250;2023-02-07T16:27:27;4.90;99.90
5962;DHT22;3007;50.770;0.250;2023-02-07T16:29:57;4.90;99.90
5962;DHT22;3007;50.770;0.250;2023-02-07T16:32:26;4.80;99.90
5962;DHT22;3007;50.770;0.250;2023-02-07T16:34:54;4.80;99.90
5962;DHT22;3007;50.770;0.250;2023-02-07T16:37:21;4.70;99.90
5962;DHT22;3007;50.770;0.250;2023-02-07T16:39:49;4.80;99.90
5962;DHT22;3007;50.770;0.250;2023-02-07T16:42:16;4.70;99.90
5962;DHT22;3007;50.770;0.250;2023-02-07T16:44:45;4.60;99.90
5962;DHT22;3007;50.770;0.250;2023-02-07T16:47:12;4.60;99.90
5962;DHT22;3007;50.770;0.250;2023-02-07T16:49:41;4.50;99.90